Aérodrome :
LOGIN :

S'inscrire | Disclaimer

   EN    FR    IT 

 










Légende :    VFR   VFR Marginal   IFR   IFR Intensif   IFR Très Intensif
Visi : 
Plafond : 
>= 8 km
>= 3000ft
5 à 8 km
1000 à 3000 ft
1500m à 5 km
500 à 1000 ft
800 à 1500m
200 à 500 ft
< 800m
< 200 ft
Symboles :   Orages  Brouillard  Fortes neiges  Fortes précipitations  Vent > 20 kt
SIGMETs :   Divers  Orages  Givrage  Turbulence  Onde Orograph.  Cendres Volcan.






- Altitude de l'aérodrome : 1460 ft


LSMA - Alpnach

DERNIER METAR :
  • 200250Z AUTO VRB04KT 9999NDV SCT042 04/03 Q1015 RMK

METARs EXPIRÉS :
  • 200220Z AUTO 00000KT 9999NDV FEW023 SCT037 BKN044 04/03 Q1015 RMK
  • 200150Z AUTO 08004KT 350V150 9999NDV -SHRA FEW009 SCT016 05/02 Q1015 RESHRA RMK
  • 200120Z AUTO 21004KT 160V260 4000NDV SHRA FEW017 SCT020 OVC026 05/05 Q1015 RMK
  • 200050Z AUTO 00000KT 9999NDV SCT038 BKN050 05/04 Q1014 RMK
  • 200020Z AUTO VRB01KT 9999NDV FEW009 BKN036 BKN058 05/05 Q1015 RMK
  • 192350Z AUTO 21002KT 9999NDV -RA FEW010 SCT034 OVC044 05/05 Q1015 RMK
  • 192320Z AUTO VRB01KT 9999NDV -RA BKN033 OVC039 06/05 Q1015 RMK
  • 192250Z AUTO VRB02KT 9999NDV -RA BKN031 OVC036 06/05 Q1015 RMK
  • 192220Z AUTO 22006KT 190V250 9999NDV -RA FEW026 OVC031 06/05 Q1015 RERA RMK

Prévision TAF périmée.



MET'MAP, la Météo Aéronautique d'un coup d'oeil ! - Copyright ORBIFLY Décembre 2007 - Disclaimer

ORBIFLY MET'MAP TEAM :

Programmation & Développement : Alexandra Zaïnal
Sur une idée originale de : Baudouin d'Aumeries
Soutien technique & logistique : Manuel Goepfert
Assistance : Marc-Olivier Méhu




SOURCES & CREDITS :

   NOAA